sensor_id;sensor_type;location;lat;lon;timestamp;temperature;humidity
37446;DHT22;23307;51.136;14.942;2022-07-24T00:01:18;19.70;99.90
37446;DHT22;23307;51.136;14.942;2022-07-24T00:03:43;19.60;99.90
37446;DHT22;23307;51.136;14.942;2022-07-24T00:06:09;19.60;99.90
37446;DHT22;23307;51.136;14.942;2022-07-24T00:08:34;19.60;99.90
37446;DHT22;23307;51.136;14.942;2022-07-24T00:10:59;19.60;99.90
37446;DHT22;23307;51.136;14.942;2022-07-24T00:13:25;19.50;99.90
37446;DHT22;23307;51.136;14.942;2022-07-24T00:15:50;19.50;99.90
37446;DHT22;23307;51.136;14.942;2022-07-24T00:18:16;19.50;99.90
37446;DHT22;23307;51.136;14.942;2022-07-24T00:20:41;19.50;99.90
37446;DHT22;23307;51.136;14.942;2022-07-24T00:23:07;19.40;99.90
37446;DHT22;23307;51.136;14.942;2022-07-24T00:25:33;19.30;99.90
37446;DHT22;23307;51.136;14.942;2022-07-24T00:27:58;19.30;99.90
37446;DHT22;23307;51.136;14.942;2022-07-24T00:30:24;19.20;99.90
37446;DHT22;23307;51.136;14.942;2022-07-24T00:32:49;19.20;99.90
37446;DHT22;23307;51.136;14.942;2022-07-24T00:35:15;19.10;99.90
37446;DHT22;23307;51.136;14.942;2022-07-24T00:37:40;19.10;99.90
37446;DHT22;23307;51.136;14.942;2022-07-24T00:40:07;19.00;99.90
37446;DHT22;23307;51.136;14.942;2022-07-24T00:42:32;18.90;99.90
37446;DHT22;23307;51.136;14.942;2022-07-24T00:44:58;18.80;99.90
37446;DHT22;23307;51.136;14.942;2022-07-24T00:47:23;18.80;99.90
37446;DHT22;23307;51.136;14.942;2022-07-24T00:49:49;18.70;99.90
37446;DHT22;23307;51.136;14.942;2022-07-24T00:52:14;18.70;99.90
37446;DHT22;23307;51.136;14.942;2022-07-24T00:54:40;18.70;99.90
37446;DHT22;23307;51.136;14.942;2022-07-24T00:57:05;18.60;99.90
37446;DHT22;23307;51.136;14.942;2022-07-24T00:59:31;18.60;99.90
37446;DHT22;23307;51.136;14.942;2022-07-24T01:01:56;18.50;99.90
37446;DHT22;23307;51.136;14.942;2022-07-24T01:04:22;18.50;99.90
37446;DHT22;23307;51.136;14.942;2022-07-24T01:06:48;18.50;99.90
37446;DHT22;23307;51.136;14.942;2022-07-24T01:09:14;18.40;99.90
37446;DHT22;23307;51.136;14.942;2022-07-24T01:11:41;18.30;99.90
37446;DHT22;23307;51.136;14.942;2022-07-24T01:14:08;18.30;99.90
37446;DHT22;23307;51.136;14.942;2022-07-24T01:16:35;18.20;99.90
37446;DHT22;23307;51.136;14.942;2022-07-24T01:19:00;18.20;99.90
37446;DHT22;23307;51.136;14.942;2022-07-24T01:21:26;18.20;99.90
37446;DHT22;23307;51.136;14.942;2022-07-24T01:23:51;18.20;99.90
37446;DHT22;23307;51.136;14.942;2022-07-24T01:26:17;18.20;99.90
37446;DHT22;23307;51.136;14.942;2022-07-24T01:28:43;18.20;99.90
37446;DHT22;23307;51.136;14.942;2022-07-24T01:31:08;18.20;99.90
37446;DHT22;23307;51.136;14.942;2022-07-24T01:33:34;18.30;99.90
37446;DHT22;23307;51.136;14.942;2022-07-24T01:35:59;18.20;99.90
37446;DHT22;23307;51.136;14.942;2022-07-24T01:38:25;18.20;99.90
37446;DHT22;23307;51.136;14.942;2022-07-24T01:40:51;18.10;99.90
37446;DHT22;23307;51.136;14.942;2022-07-24T01:43:16;18.10;99.90
37446;DHT22;23307;51.136;14.942;2022-07-24T01:45:42;18.10;99.90
37446;DHT22;23307;51.136;14.942;2022-07-24T01:48:07;18.10;99.90
37446;DHT22;23307;51.136;14.942;2022-07-24T01:50:33;18.00;99.90
37446;DHT22;23307;51.136;14.942;2022-07-24T01:52:58;18.00;99.90
37446;DHT22;23307;51.136;14.942;2022-07-24T01:55:27;18.00;99.90
37446;DHT22;23307;51.136;14.942;2022-07-24T01:57:52;17.90;99.90
37446;DHT22;23307;51.136;14.942;2022-07-24T02:00:18;17.90;99.90
37446;DHT22;23307;51.136;14.942;2022-07-24T02:02:44;17.90;99.90
37446;DHT22;23307;51.136;14.942;2022-07-24T02:05:11;17.90;99.90
37446;DHT22;23307;51.136;14.942;2022-07-24T02:07:38;17.90;99.90
37446;DHT22;23307;51.136;14.942;2022-07-24T02:10:04;17.80;99.90
37446;DHT22;23307;51.136;14.942;2022-07-24T02:12:30;17.70;99.90
37446;DHT22;23307;51.136;14.942;2022-07-24T02:14:55;17.70;99.90
37446;DHT22;23307;51.136;14.942;2022-07-24T02:17:21;17.70;99.90
37446;DHT22;23307;51.136;14.942;2022-07-24T02:19:46;17.70;99.90
37446;DHT22;23307;51.136;14.942;2022-07-24T02:22:12;17.70;99.90
37446;DHT22;23307;51.136;14.942;2022-07-24T02:24:37;17.70;99.90
37446;DHT22;23307;51.136;14.942;2022-07-24T02:27:03;17.70;99.90
37446;DHT22;23307;51.136;14.942;2022-07-24T02:29:28;17.80;99.90
37446;DHT22;23307;51.136;14.942;2022-07-24T02:31:54;17.70;99.90
37446;DHT22;23307;51.136;14.942;2022-07-24T02:34:19;17.70;99.90
37446;DHT22;23307;51.136;14.942;2022-07-24T02:36:45;17.70;99.90
37446;DHT22;23307;51.136;14.942;2022-07-24T02:39:10;17.80;99.90
37446;DHT22;23307;51.136;14.942;2022-07-24T02:41:36;17.70;99.90
37446;DHT22;23307;51.136;14.942;2022-07-24T02:44:01;17.80;99.90
37446;DHT22;23307;51.136;14.942;2022-07-24T02:46:27;17.80;99.90
37446;DHT22;23307;51.136;14.942;2022-07-24T02:48:53;17.80;99.90
37446;DHT22;23307;51.136;14.942;2022-07-24T02:51:18;17.70;99.90
37446;DHT22;23307;51.136;14.942;2022-07-24T02:53:44;17.60;99.90
37446;DHT22;23307;51.136;14.942;2022-07-24T02:56:09;17.60;99.90
37446;DHT22;23307;51.136;14.942;2022-07-24T02:58:34;17.60;99.90
37446;DHT22;23307;51.136;14.942;2022-07-24T03:01:00;17.60;99.90
37446;DHT22;23307;51.136;14.942;2022-07-24T03:03:26;17.60;99.90
37446;DHT22;23307;51.136;14.942;2022-07-24T03:05:51;17.50;99.90
37446;DHT22;23307;51.136;14.942;2022-07-24T03:08:17;17.50;99.90
37446;DHT22;23307;51.136;14.942;2022-07-24T03:10:42;17.50;99.90
37446;DHT22;23307;51.136;14.942;2022-07-24T03:13:08;17.50;99.90
37446;DHT22;23307;51.136;14.942;2022-07-24T03:15:33;17.50;99.90
37446;DHT22;23307;51.136;14.942;2022-07-24T03:17:59;17.50;99.90
37446;DHT22;23307;51.136;14.942;2022-07-24T03:20:27;17.60;99.90
37446;DHT22;23307;51.136;14.942;2022-07-24T03:22:54;17.60;99.90
37446;DHT22;23307;51.136;14.942;2022-07-24T03:25:20;17.60;99.90
37446;DHT22;23307;51.136;14.942;2022-07-24T03:27:46;17.60;99.90
37446;DHT22;23307;51.136;14.942;2022-07-24T03:30:13;17.60;99.90
37446;DHT22;23307;51.136;14.942;2022-07-24T03:32:39;17.70;99.90
37446;DHT22;23307;51.136;14.942;2022-07-24T03:35:05;17.70;99.90
37446;DHT22;23307;51.136;14.942;2022-07-24T03:37:31;17.60;99.90
37446;DHT22;23307;51.136;14.942;2022-07-24T03:39:56;17.50;99.90
37446;DHT22;23307;51.136;14.942;2022-07-24T03:42:22;17.50;99.90
37446;DHT22;23307;51.136;14.942;2022-07-24T03:44:47;17.50;99.90
37446;DHT22;23307;51.136;14.942;2022-07-24T03:47:13;17.50;99.90
37446;DHT22;23307;51.136;14.942;2022-07-24T03:49:38;17.50;99.90
37446;DHT22;23307;51.136;14.942;2022-07-24T03:52:04;17.60;99.90
37446;DHT22;23307;51.136;14.942;2022-07-24T03:54:30;17.60;99.90
37446;DHT22;23307;51.136;14.942;2022-07-24T03:56:55;17.70;99.90
37446;DHT22;23307;51.136;14.942;2022-07-24T03:59:21;17.60;99.90
37446;DHT22;23307;51.136;14.942;2022-07-24T04:01:47;17.60;99.90
37446;DHT22;23307;51.136;14.942;2022-07-24T04:04:13;17.60;99.90
37446;DHT22;23307;51.136;14.942;2022-07-24T04:06:38;17.60;99.90
37446;DHT22;23307;51.136;14.942;2022-07-24T04:09:05;17.50;99.90
37446;DHT22;23307;51.136;14.942;2022-07-24T04:11:31;17.60;99.90
37446;DHT22;23307;51.136;14.942;2022-07-24T04:13:57;17.60;99.90
37446;DHT22;23307;51.136;14.942;2022-07-24T04:16:22;17.60;99.90
37446;DHT22;23307;51.136;14.942;2022-07-24T04:18:48;17.70;99.90
37446;DHT22;23307;51.136;14.942;2022-07-24T04:21:14;17.70;99.90
37446;DHT22;23307;51.136;14.942;2022-07-24T04:23:39;17.70;99.90
37446;DHT22;23307;51.136;14.942;2022-07-24T04:26:06;17.70;99.90
37446;DHT22;23307;51.136;14.942;2022-07-24T04:28:31;17.70;99.90
37446;DHT22;23307;51.136;14.942;2022-07-24T04:30:57;17.70;99.90
37446;DHT22;23307;51.136;14.942;2022-07-24T04:33:22;17.70;99.90
37446;DHT22;23307;51.136;14.942;2022-07-24T04:35:48;17.70;99.90
37446;DHT22;23307;51.136;14.942;2022-07-24T04:38:13;17.70;99.90
37446;DHT22;23307;51.136;14.942;2022-07-24T04:40:39;17.80;99.90
37446;DHT22;23307;51.136;14.942;2022-07-24T04:43:05;17.80;99.90
37446;DHT22;23307;51.136;14.942;2022-07-24T04:45:31;17.80;99.90
37446;DHT22;23307;51.136;14.942;2022-07-24T04:47:57;17.80;99.90
37446;DHT22;23307;51.136;14.942;2022-07-24T04:50:22;17.80;99.90
37446;DHT22;23307;51.136;14.942;2022-07-24T04:52:48;17.90;99.90
37446;DHT22;23307;51.136;14.942;2022-07-24T04:55:13;17.90;99.90
37446;DHT22;23307;51.136;14.942;2022-07-24T04:57:39;18.00;99.90
37446;DHT22;23307;51.136;14.942;2022-07-24T05:00:07;18.00;99.90
37446;DHT22;23307;51.136;14.942;2022-07-24T05:02:34;18.00;99.90
37446;DHT22;23307;51.136;14.942;2022-07-24T05:04:59;18.00;99.90
37446;DHT22;23307;51.136;14.942;2022-07-24T05:07:25;18.00;99.90
37446;DHT22;23307;51.136;14.942;2022-07-24T05:09:50;18.10;99.90
37446;DHT22;23307;51.136;14.942;2022-07-24T05:12:16;18.10;99.90
37446;DHT22;23307;51.136;14.942;2022-07-24T05:14:41;18.10;99.90
37446;DHT22;23307;51.136;14.942;2022-07-24T05:17:07;18.10;99.90
37446;DHT22;23307;51.136;14.942;2022-07-24T05:19:32;18.20;99.90
37446;DHT22;23307;51.136;14.942;2022-07-24T05:21:58;18.30;99.90
37446;DHT22;23307;51.136;14.942;2022-07-24T05:24:23;18.30;99.90
37446;DHT22;23307;51.136;14.942;2022-07-24T05:26:50;18.40;99.90
37446;DHT22;23307;51.136;14.942;2022-07-24T05:29:16;18.40;99.90
37446;DHT22;23307;51.136;14.942;2022-07-24T05:31:41;18.50;99.90
37446;DHT22;23307;51.136;14.942;2022-07-24T05:34:07;18.50;99.90
37446;DHT22;23307;51.136;14.942;2022-07-24T05:36:33;18.60;99.90
37446;DHT22;23307;51.136;14.942;2022-07-24T05:38:58;18.60;99.90
37446;DHT22;23307;51.136;14.942;2022-07-24T05:41:24;18.70;99.90
37446;DHT22;23307;51.136;14.942;2022-07-24T05:43:49;18.80;99.90
37446;DHT22;23307;51.136;14.942;2022-07-24T05:46:15;18.90;99.90
37446;DHT22;23307;51.136;14.942;2022-07-24T05:48:40;18.90;99.90
37446;DHT22;23307;51.136;14.942;2022-07-24T05:51:06;19.00;99.90
37446;DHT22;23307;51.136;14.942;2022-07-24T05:53:31;19.10;99.90
37446;DHT22;23307;51.136;14.942;2022-07-24T05:55:57;19.10;99.90
37446;DHT22;23307;51.136;14.942;2022-07-24T05:58:22;19.20;99.90
37446;DHT22;23307;51.136;14.942;2022-07-24T06:00:48;19.30;99.90
37446;DHT22;23307;51.136;14.942;2022-07-24T06:03:13;19.40;99.90
37446;DHT22;23307;51.136;14.942;2022-07-24T06:05:38;19.40;99.90
37446;DHT22;23307;51.136;14.942;2022-07-24T06:08:04;19.50;99.90
37446;DHT22;23307;51.136;14.942;2022-07-24T06:10:30;19.50;99.90
37446;DHT22;23307;51.136;14.942;2022-07-24T06:12:57;19.60;99.90
37446;DHT22;23307;51.136;14.942;2022-07-24T06:15:22;19.70;99.90
37446;DHT22;23307;51.136;14.942;2022-07-24T06:17:48;19.80;99.90
37446;DHT22;23307;51.136;14.942;2022-07-24T06:20:13;19.80;99.90
37446;DHT22;23307;51.136;14.942;2022-07-24T06:22:40;19.90;99.90
37446;DHT22;23307;51.136;14.942;2022-07-24T06:25:06;20.00;99.90
37446;DHT22;23307;51.136;14.942;2022-07-24T06:27:31;20.00;99.90
37446;DHT22;23307;51.136;14.942;2022-07-24T06:29:57;20.00;99.60
37446;DHT22;23307;51.136;14.942;2022-07-24T06:32:23;20.10;99.60
37446;DHT22;23307;51.136;14.942;2022-07-24T06:34:48;20.20;99.20
37446;DHT22;23307;51.136;14.942;2022-07-24T06:37:14;20.30;98.80
37446;DHT22;23307;51.136;14.942;2022-07-24T06:39:39;20.40;98.60
37446;DHT22;23307;51.136;14.942;2022-07-24T06:42:05;20.40;98.40
37446;DHT22;23307;51.136;14.942;2022-07-24T06:44:30;20.50;98.40
37446;DHT22;23307;51.136;14.942;2022-07-24T06:46:58;20.60;97.50
37446;DHT22;23307;51.136;14.942;2022-07-24T06:49:23;20.70;96.90
37446;DHT22;23307;51.136;14.942;2022-07-24T06:51:49;20.70;96.20
37446;DHT22;23307;51.136;14.942;2022-07-24T06:54:14;20.80;95.40
37446;DHT22;23307;51.136;14.942;2022-07-24T06:56:40;20.90;94.80
37446;DHT22;23307;51.136;14.942;2022-07-24T06:59:05;21.00;94.70
37446;DHT22;23307;51.136;14.942;2022-07-24T07:01:31;21.00;94.40
37446;DHT22;23307;51.136;14.942;2022-07-24T07:03:56;21.10;94.40
37446;DHT22;23307;51.136;14.942;2022-07-24T07:06:22;21.10;94.10
37446;DHT22;23307;51.136;14.942;2022-07-24T07:08:47;21.20;94.60
37446;DHT22;23307;51.136;14.942;2022-07-24T07:11:13;21.30;94.50
37446;DHT22;23307;51.136;14.942;2022-07-24T07:13:38;21.40;94.10
37446;DHT22;23307;51.136;14.942;2022-07-24T07:16:04;21.50;94.20
37446;DHT22;23307;51.136;14.942;2022-07-24T07:18:30;21.60;93.50
37446;DHT22;23307;51.136;14.942;2022-07-24T07:20:55;21.60;93.10
37446;DHT22;23307;51.136;14.942;2022-07-24T07:23:23;21.60;92.90
37446;DHT22;23307;51.136;14.942;2022-07-24T07:25:49;21.70;92.80
37446;DHT22;23307;51.136;14.942;2022-07-24T07:28:15;21.70;92.70
37446;DHT22;23307;51.136;14.942;2022-07-24T07:30:40;21.60;93.00
37446;DHT22;23307;51.136;14.942;2022-07-24T07:33:06;21.70;93.00
37446;DHT22;23307;51.136;14.942;2022-07-24T07:35:31;21.70;93.10
37446;DHT22;23307;51.136;14.942;2022-07-24T07:37:57;21.90;93.10
37446;DHT22;23307;51.136;14.942;2022-07-24T07:40:24;22.10;92.50
37446;DHT22;23307;51.136;14.942;2022-07-24T07:42:50;22.10;91.60
37446;DHT22;23307;51.136;14.942;2022-07-24T07:45:15;22.20;91.80
37446;DHT22;23307;51.136;14.942;2022-07-24T07:47:41;22.30;91.60
37446;DHT22;23307;51.136;14.942;2022-07-24T07:50:07;22.30;90.70
37446;DHT22;23307;51.136;14.942;2022-07-24T07:52:32;22.30;90.90
37446;DHT22;23307;51.136;14.942;2022-07-24T07:54:58;22.50;91.40
37446;DHT22;23307;51.136;14.942;2022-07-24T07:57:23;22.70;91.10
37446;DHT22;23307;51.136;14.942;2022-07-24T07:59:49;22.90;90.60
37446;DHT22;23307;51.136;14.942;2022-07-24T08:02:14;23.10;90.20
37446;DHT22;23307;51.136;14.942;2022-07-24T08:04:41;23.20;90.10
37446;DHT22;23307;51.136;14.942;2022-07-24T08:07:06;23.40;89.40
37446;DHT22;23307;51.136;14.942;2022-07-24T08:09:32;23.50;88.60
37446;DHT22;23307;51.136;14.942;2022-07-24T08:11:57;23.60;87.60
37446;DHT22;23307;51.136;14.942;2022-07-24T08:14:23;23.70;85.60
37446;DHT22;23307;51.136;14.942;2022-07-24T08:16:48;23.80;84.20
37446;DHT22;23307;51.136;14.942;2022-07-24T08:19:14;23.90;84.50
37446;DHT22;23307;51.136;14.942;2022-07-24T08:21:39;23.90;83.10
37446;DHT22;23307;51.136;14.942;2022-07-24T08:24:05;23.90;80.40
37446;DHT22;23307;51.136;14.942;2022-07-24T08:26:31;23.90;81.70
37446;DHT22;23307;51.136;14.942;2022-07-24T08:28:57;23.90;81.10
37446;DHT22;23307;51.136;14.942;2022-07-24T08:31:25;24.00;80.50
37446;DHT22;23307;51.136;14.942;2022-07-24T08:33:51;24.10;80.00
37446;DHT22;23307;51.136;14.942;2022-07-24T08:36:16;24.20;80.40
37446;DHT22;23307;51.136;14.942;2022-07-24T08:38:42;24.20;81.90
37446;DHT22;23307;51.136;14.942;2022-07-24T08:41:07;24.20;80.00
37446;DHT22;23307;51.136;14.942;2022-07-24T08:43:33;24.20;78.70
37446;DHT22;23307;51.136;14.942;2022-07-24T08:46:00;24.30;80.60
37446;DHT22;23307;51.136;14.942;2022-07-24T08:48:26;24.40;80.20
37446;DHT22;23307;51.136;14.942;2022-07-24T08:50:52;24.50;79.60
37446;DHT22;23307;51.136;14.942;2022-07-24T08:53:22;24.60;79.70
37446;DHT22;23307;51.136;14.942;2022-07-24T08:55:49;24.80;78.60
37446;DHT22;23307;51.136;14.942;2022-07-24T08:58:14;24.80;76.70
37446;DHT22;23307;51.136;14.942;2022-07-24T09:00:40;24.70;78.20
37446;DHT22;23307;51.136;14.942;2022-07-24T09:03:06;25.00;78.80
37446;DHT22;23307;51.136;14.942;2022-07-24T09:05:32;25.20;77.70
37446;DHT22;23307;51.136;14.942;2022-07-24T09:08:10;25.20;76.80
37446;DHT22;23307;51.136;14.942;2022-07-24T09:10:36;25.30;75.00
37446;DHT22;23307;51.136;14.942;2022-07-24T09:13:13;25.20;75.80
37446;DHT22;23307;51.136;14.942;2022-07-24T09:15:44;25.40;76.50
37446;DHT22;23307;51.136;14.942;2022-07-24T09:18:29;25.70;77.50
37446;DHT22;23307;51.136;14.942;2022-07-24T09:20:55;26.10;73.70
37446;DHT22;23307;51.136;14.942;2022-07-24T09:23:22;26.20;73.40
37446;DHT22;23307;51.136;14.942;2022-07-24T09:25:52;26.00;72.60
37446;DHT22;23307;51.136;14.942;2022-07-24T09:28:19;25.80;72.20
37446;DHT22;23307;51.136;14.942;2022-07-24T09:30:45;25.80;73.50
37446;DHT22;23307;51.136;14.942;2022-07-24T09:35:39;26.10;71.20
37446;DHT22;23307;51.136;14.942;2022-07-24T09:38:08;26.20;73.00
37446;DHT22;23307;51.136;14.942;2022-07-24T09:40:36;26.30;71.40
37446;DHT22;23307;51.136;14.942;2022-07-24T09:43:19;26.60;71.10
37446;DHT22;23307;51.136;14.942;2022-07-24T09:48:38;26.80;70.20
37446;DHT22;23307;51.136;14.942;2022-07-24T09:51:15;27.10;68.80
37446;DHT22;23307;51.136;14.942;2022-07-24T09:53:42;27.00;67.40
37446;DHT22;23307;51.136;14.942;2022-07-24T09:56:15;26.80;66.90
37446;DHT22;23307;51.136;14.942;2022-07-24T09:58:55;26.80;66.80
37446;DHT22;23307;51.136;14.942;2022-07-24T10:01:26;26.70;66.20
37446;DHT22;23307;51.136;14.942;2022-07-24T10:03:53;26.70;67.70
37446;DHT22;23307;51.136;14.942;2022-07-24T10:06:21;26.90;66.90
37446;DHT22;23307;51.136;14.942;2022-07-24T10:08:49;27.10;68.20
37446;DHT22;23307;51.136;14.942;2022-07-24T10:11:16;27.10;64.90
37446;DHT22;23307;51.136;14.942;2022-07-24T10:13:42;27.10;65.30
37446;DHT22;23307;51.136;14.942;2022-07-24T10:18:55;27.70;65.60
37446;DHT22;23307;51.136;14.942;2022-07-24T10:21:32;27.50;63.40
37446;DHT22;23307;51.136;14.942;2022-07-24T10:29:07;28.00;62.90
37446;DHT22;23307;51.136;14.942;2022-07-24T10:31:35;28.10;62.00
37446;DHT22;23307;51.136;14.942;2022-07-24T10:34:05;28.30;59.70
37446;DHT22;23307;51.136;14.942;2022-07-24T10:36:36;28.10;60.10
37446;DHT22;23307;51.136;14.942;2022-07-24T10:39:10;28.40;61.10
37446;DHT22;23307;51.136;14.942;2022-07-24T10:41:37;28.70;60.90
37446;DHT22;23307;51.136;14.942;2022-07-24T10:44:17;28.70;58.30
37446;DHT22;23307;51.136;14.942;2022-07-24T10:47:06;28.60;57.80
37446;DHT22;23307;51.136;14.942;2022-07-24T10:52:01;28.90;58.60
37446;DHT22;23307;51.136;14.942;2022-07-24T10:54:27;29.00;59.30
37446;DHT22;23307;51.136;14.942;2022-07-24T10:56:53;29.40;60.20
37446;DHT22;23307;51.136;14.942;2022-07-24T10:59:38;29.70;59.20
37446;DHT22;23307;51.136;14.942;2022-07-24T11:02:28;29.70;57.70
37446;DHT22;23307;51.136;14.942;2022-07-24T11:05:22;29.50;57.70
37446;DHT22;23307;51.136;14.942;2022-07-24T11:10:50;29.30;58.60
37446;DHT22;23307;51.136;14.942;2022-07-24T11:21:32;29.80;55.70
37446;DHT22;23307;51.136;14.942;2022-07-24T11:26:46;30.20;55.50
37446;DHT22;23307;51.136;14.942;2022-07-24T11:29:21;30.20;51.90
37446;DHT22;23307;51.136;14.942;2022-07-24T11:31:50;30.00;54.40
37446;DHT22;23307;51.136;14.942;2022-07-24T11:34:16;30.20;53.80
37446;DHT22;23307;51.136;14.942;2022-07-24T11:36:45;30.30;53.20
37446;DHT22;23307;51.136;14.942;2022-07-24T11:39:13;30.40;54.30
37446;DHT22;23307;51.136;14.942;2022-07-24T11:42:09;30.70;52.20
37446;DHT22;23307;51.136;14.942;2022-07-24T11:44:37;30.50;54.20
37446;DHT22;23307;51.136;14.942;2022-07-24T11:47:17;30.50;53.70
37446;DHT22;23307;51.136;14.942;2022-07-24T11:49:53;30.70;52.40
37446;DHT22;23307;51.136;14.942;2022-07-24T11:52:24;30.70;53.30
37446;DHT22;23307;51.136;14.942;2022-07-24T11:54:53;30.50;50.90
37446;DHT22;23307;51.136;14.942;2022-07-24T11:59:52;30.90;52.00
37446;DHT22;23307;51.136;14.942;2022-07-24T12:02:18;31.10;51.70
37446;DHT22;23307;51.136;14.942;2022-07-24T12:04:45;31.20;50.80
37446;DHT22;23307;51.136;14.942;2022-07-24T12:07:17;31.10;50.20
37446;DHT22;23307;51.136;14.942;2022-07-24T12:09:57;30.70;48.30
37446;DHT22;23307;51.136;14.942;2022-07-24T12:12:26;30.30;49.30
37446;DHT22;23307;51.136;14.942;2022-07-24T12:15:13;30.30;50.40
37446;DHT22;23307;51.136;14.942;2022-07-24T12:18:01;30.60;51.50
37446;DHT22;23307;51.136;14.942;2022-07-24T12:20:33;31.20;50.60
37446;DHT22;23307;51.136;14.942;2022-07-24T12:23:01;31.60;50.60
37446;DHT22;23307;51.136;14.942;2022-07-24T12:25:27;31.60;48.30
37446;DHT22;23307;51.136;14.942;2022-07-24T12:28:14;31.70;49.90
37446;DHT22;23307;51.136;14.942;2022-07-24T12:30:42;32.10;49.70
37446;DHT22;23307;51.136;14.942;2022-07-24T12:33:28;32.50;49.10
37446;DHT22;23307;51.136;14.942;2022-07-24T12:38:34;33.00;49.10
37446;DHT22;23307;51.136;14.942;2022-07-24T12:41:11;33.00;48.00
37446;DHT22;23307;51.136;14.942;2022-07-24T12:43:50;33.20;48.00
37446;DHT22;23307;51.136;14.942;2022-07-24T12:46:18;33.30;46.20
37446;DHT22;23307;51.136;14.942;2022-07-24T12:49:02;33.00;46.60
37446;DHT22;23307;51.136;14.942;2022-07-24T12:54:32;33.10;46.80
37446;DHT22;23307;51.136;14.942;2022-07-24T12:57:00;32.60;45.20
37446;DHT22;23307;51.136;14.942;2022-07-24T12:59:31;32.30;47.00
37446;DHT22;23307;51.136;14.942;2022-07-24T13:02:08;32.70;48.80
37446;DHT22;23307;51.136;14.942;2022-07-24T13:04:48;33.00;47.50
37446;DHT22;23307;51.136;14.942;2022-07-24T13:07:15;33.30;46.20
37446;DHT22;23307;51.136;14.942;2022-07-24T13:09:42;33.00;44.30
37446;DHT22;23307;51.136;14.942;2022-07-24T13:12:08;32.70;46.10
37446;DHT22;23307;51.136;14.942;2022-07-24T13:14:34;33.10;47.50
37446;DHT22;23307;51.136;14.942;2022-07-24T13:17:08;33.50;47.60
37446;DHT22;23307;51.136;14.942;2022-07-24T13:19:36;33.80;46.80
37446;DHT22;23307;51.136;14.942;2022-07-24T13:22:02;33.90;45.70
37446;DHT22;23307;51.136;14.942;2022-07-24T13:24:28;34.20;44.10
37446;DHT22;23307;51.136;14.942;2022-07-24T13:26:55;34.00;44.30
37446;DHT22;23307;51.136;14.942;2022-07-24T13:29:21;33.80;44.10
37446;DHT22;23307;51.136;14.942;2022-07-24T13:31:47;34.00;44.00
37446;DHT22;23307;51.136;14.942;2022-07-24T13:34:12;34.20;45.50
37446;DHT22;23307;51.136;14.942;2022-07-24T13:36:38;34.50;44.20
37446;DHT22;23307;51.136;14.942;2022-07-24T13:39:05;34.80;45.00
37446;DHT22;23307;51.136;14.942;2022-07-24T13:41:31;34.80;43.10
37446;DHT22;23307;51.136;14.942;2022-07-24T13:43:57;35.10;43.70
37446;DHT22;23307;51.136;14.942;2022-07-24T13:46:23;35.30;42.60
37446;DHT22;23307;51.136;14.942;2022-07-24T13:48:49;35.20;41.70
37446;DHT22;23307;51.136;14.942;2022-07-24T13:51:17;34.70;42.40
37446;DHT22;23307;51.136;14.942;2022-07-24T13:53:43;34.10;44.40
37446;DHT22;23307;51.136;14.942;2022-07-24T13:56:09;34.00;43.90
37446;DHT22;23307;51.136;14.942;2022-07-24T13:58:35;34.00;43.50
37446;DHT22;23307;51.136;14.942;2022-07-24T14:01:05;33.80;44.50
37446;DHT22;23307;51.136;14.942;2022-07-24T14:03:31;34.00;44.40
37446;DHT22;23307;51.136;14.942;2022-07-24T14:05:58;34.20;44.90
37446;DHT22;23307;51.136;14.942;2022-07-24T14:08:23;34.50;44.40
37446;DHT22;23307;51.136;14.942;2022-07-24T14:10:49;34.90;44.60
37446;DHT22;23307;51.136;14.942;2022-07-24T14:13:15;35.20;43.10
37446;DHT22;23307;51.136;14.942;2022-07-24T14:15:40;35.50;42.50
37446;DHT22;23307;51.136;14.942;2022-07-24T14:18:06;35.70;42.70
37446;DHT22;23307;51.136;14.942;2022-07-24T14:20:32;35.90;41.10
37446;DHT22;23307;51.136;14.942;2022-07-24T14:22:57;35.80;40.30
37446;DHT22;23307;51.136;14.942;2022-07-24T14:25:23;35.80;40.10
37446;DHT22;23307;51.136;14.942;2022-07-24T14:27:48;35.60;39.20
37446;DHT22;23307;51.136;14.942;2022-07-24T14:30:14;35.20;41.60
37446;DHT22;23307;51.136;14.942;2022-07-24T14:32:40;35.40;40.90
37446;DHT22;23307;51.136;14.942;2022-07-24T14:35:07;35.30;41.10
37446;DHT22;23307;51.136;14.942;2022-07-24T14:37:37;35.00;40.60
37446;DHT22;23307;51.136;14.942;2022-07-24T14:40:04;34.80;41.50
37446;DHT22;23307;51.136;14.942;2022-07-24T14:42:30;35.10;42.60
37446;DHT22;23307;51.136;14.942;2022-07-24T14:44:55;35.30;41.80
37446;DHT22;23307;51.136;14.942;2022-07-24T14:47:21;35.30;40.10
37446;DHT22;23307;51.136;14.942;2022-07-24T14:49:46;35.30;41.20
37446;DHT22;23307;51.136;14.942;2022-07-24T14:52:12;35.40;41.00
37446;DHT22;23307;51.136;14.942;2022-07-24T14:54:39;35.80;40.90
37446;DHT22;23307;51.136;14.942;2022-07-24T14:57:04;36.00;40.30
37446;DHT22;23307;51.136;14.942;2022-07-24T14:59:30;36.10;40.40
37446;DHT22;23307;51.136;14.942;2022-07-24T15:01:55;36.30;39.50
37446;DHT22;23307;51.136;14.942;2022-07-24T15:04:21;36.50;40.70
37446;DHT22;23307;51.136;14.942;2022-07-24T15:06:46;36.80;40.40
37446;DHT22;23307;51.136;14.942;2022-07-24T15:09:12;36.80;40.20
37446;DHT22;23307;51.136;14.942;2022-07-24T15:11:37;36.80;39.30
37446;DHT22;23307;51.136;14.942;2022-07-24T15:14:04;36.90;39.70
37446;DHT22;23307;51.136;14.942;2022-07-24T15:16:30;37.00;39.10
37446;DHT22;23307;51.136;14.942;2022-07-24T15:18:55;37.20;39.00
37446;DHT22;23307;51.136;14.942;2022-07-24T15:21:21;37.20;38.60
37446;DHT22;23307;51.136;14.942;2022-07-24T15:23:46;37.10;39.10
37446;DHT22;23307;51.136;14.942;2022-07-24T15:26:12;37.20;39.30
37446;DHT22;23307;51.136;14.942;2022-07-24T15:28:38;37.20;39.30
37446;DHT22;23307;51.136;14.942;2022-07-24T15:31:03;36.90;38.20
37446;DHT22;23307;51.136;14.942;2022-07-24T15:33:29;36.60;38.20
37446;DHT22;23307;51.136;14.942;2022-07-24T15:35:54;35.70;38.40
37446;DHT22;23307;51.136;14.942;2022-07-24T15:38:20;34.80;39.00
37446;DHT22;23307;51.136;14.942;2022-07-24T15:40:46;34.00;40.30
37446;DHT22;23307;51.136;14.942;2022-07-24T15:43:11;34.00;41.20
37446;DHT22;23307;51.136;14.942;2022-07-24T15:45:37;34.40;42.80
37446;DHT22;23307;51.136;14.942;2022-07-24T15:48:03;35.00;41.80
37446;DHT22;23307;51.136;14.942;2022-07-24T15:50:29;35.10;40.00
37446;DHT22;23307;51.136;14.942;2022-07-24T15:52:54;35.00;40.90